Time;durP1;ratioP1;P1;durP2;ratioP2;P2;SDS_P1;SDS_P2;PMS_P1;PMS_P2;Temp;Humidity;BMP_temperature;BMP_pressure;BME280_temperature;BME280_humidity;BME280_pressure;Samples;Min_cycle;Max_cycle;Signal;HPM_P1;HPM_P2
2023/12/14 00:00:22;;;;;;;8.48;5.20;;;4.80;99.90;;;;;;5100062;27;20455;-77
2023/12/14 00:02:47;;;;;;;10.82;5.07;;;4.90;99.90;;;;;;5133232;27;20043;-77
2023/12/14 00:05:13;;;;;;;8.35;5.05;;;4.80;99.90;;;;;;5114173;27;20066;-78
2023/12/14 00:07:39;;;;;;;9.80;5.20;;;4.90;99.90;;;;;;5104813;27;20035;-77
2023/12/14 00:10:05;;;;;;;8.40;5.43;;;4.80;99.90;;;;;;5132771;27;20054;-78
2023/12/14 00:12:31;;;;;;;10.18;5.13;;;4.80;99.90;;;;;;5130126;27;20039;-77
2023/12/14 00:14:57;;;;;;;8.95;5.43;;;4.90;99.90;;;;;;5114691;27;20347;-78
2023/12/14 00:17:22;;;;;;;9.75;5.20;;;4.80;99.90;;;;;;5113102;28;20450;-77
2023/12/14 00:19:48;;;;;;;7.40;4.95;;;4.80;99.90;;;;;;5115779;27;20054;-77
2023/12/14 00:22:14;;;;;;;8.18;4.97;;;4.80;99.90;;;;;;5116086;27;20123;-77
2023/12/14 00:24:39;;;;;;;7.45;4.50;;;4.70;99.90;;;;;;5133186;27;20035;-77
2023/12/14 00:27:05;;;;;;;7.85;4.50;;;4.70;99.90;;;;;;5133592;27;20150;-78
2023/12/14 00:29:31;;;;;;;7.93;4.45;;;4.70;99.90;;;;;;5133143;27;20043;-78
2023/12/14 00:31:57;;;;;;;5.82;4.22;;;4.70;99.90;;;;;;5127451;27;20040;-78
2023/12/14 00:34:22;;;;;;;6.63;4.43;;;4.70;99.90;;;;;;5095448;28;20058;-78
2023/12/14 00:36:48;;;;;;;6.78;4.20;;;4.70;99.90;;;;;;5095254;28;20112;-79
2023/12/14 00:39:13;;;;;;;7.93;4.50;;;4.80;99.90;;;;;;5095293;28;20072;-78
2023/12/14 00:41:39;;;;;;;6.07;4.28;;;4.70;99.90;;;;;;5112220;28;20035;-78
2023/12/14 00:44:05;;;;;;;7.13;4.50;;;4.70;99.90;;;;;;5095122;28;20046;-78
2023/12/14 00:46:30;;;;;;;7.53;4.85;;;4.80;99.90;;;;;;5095351;28;20046;-78
2023/12/14 00:48:56;;;;;;;6.03;4.40;;;4.70;99.90;;;;;;5063496;28;20040;-78
2023/12/14 00:51:22;;;;;;;8.18;4.63;;;4.70;99.90;;;;;;5127834;27;20468;-78
2023/12/14 00:53:47;;;;;;;7.50;4.50;;;4.70;99.90;;;;;;5102114;27;20054;-78
2023/12/14 00:56:13;;;;;;;6.10;4.80;;;4.70;99.90;;;;;;5093837;28;20414;-79
2023/12/14 00:58:39;;;;;;;6.93;4.82;;;4.70;99.90;;;;;;5111989;27;20064;-78
2023/12/14 01:01:04;;;;;;;7.18;4.65;;;4.70;99.90;;;;;;5103346;27;20043;-79
2023/12/14 01:03:30;;;;;;;9.00;5.03;;;4.60;99.90;;;;;;5095067;28;20032;-79
2023/12/14 01:05:56;;;;;;;8.57;4.97;;;4.70;99.90;;;;;;5093755;28;20066;-78
2023/12/14 01:08:22;;;;;;;6.97;4.93;;;4.70;99.90;;;;;;5111647;28;20050;-78
2023/12/14 01:10:47;;;;;;;8.65;5.05;;;4.70;99.90;;;;;;5128837;27;20040;-78
2023/12/14 01:13:13;;;;;;;8.15;5.25;;;4.70;99.90;;;;;;5141907;27;20070;-79
2023/12/14 01:15:39;;;;;;;9.27;5.15;;;4.80;99.90;;;;;;5089406;28;20444;-78
2023/12/14 01:18:04;;;;;;;7.25;5.10;;;4.70;99.90;;;;;;5130960;27;20066;-78
2023/12/14 01:20:30;;;;;;;8.10;5.55;;;4.70;99.90;;;;;;5087982;28;20039;-79
2023/12/14 01:22:56;;;;;;;11.52;5.80;;;4.70;99.90;;;;;;5095170;28;20043;-79
2023/12/14 01:25:21;;;;;;;12.02;5.97;;;4.70;99.90;;;;;;5139001;27;20122;-79
2023/12/14 01:27:47;;;;;;;8.43;5.05;;;4.80;99.90;;;;;;5081191;28;20032;-78
2023/12/14 01:30:13;;;;;;;10.77;6.00;;;4.70;99.90;;;;;;5086617;28;20092;-79
2023/12/14 01:32:38;;;;;;;13.43;6.32;;;4.80;99.90;;;;;;5084672;28;20048;-78
2023/12/14 01:35:05;;;;;;;11.70;6.47;;;4.80;99.90;;;;;;5102395;28;20411;-79
2023/12/14 01:37:30;;;;;;;12.68;6.70;;;4.80;99.90;;;;;;5113965;27;20491;-78
2023/12/14 01:39:56;;;;;;;11.07;6.20;;;4.80;99.90;;;;;;5093467;28;20036;-79
2023/12/14 01:42:22;;;;;;;13.77;7.30;;;4.70;99.90;;;;;;5097151;28;20566;-79
2023/12/14 01:44:47;;;;;;;14.98;6.97;;;4.70;99.90;;;;;;5127823;27;20124;-78
2023/12/14 01:47:13;;;;;;;12.52;6.47;;;4.70;99.90;;;;;;5124990;27;20035;-79
2023/12/14 01:49:41;;;;;;;13.50;7.30;;;4.70;99.90;;;;;;5109455;28;20070;-79
2023/12/14 01:52:07;;;;;;;11.23;6.85;;;4.70;99.90;;;;;;5105380;28;20040;-79
2023/12/14 01:54:33;;;;;;;11.25;6.72;;;4.70;99.90;;;;;;5091480;28;20043;-79
2023/12/14 01:56:59;;;;;;;11.40;6.28;;;4.70;99.90;;;;;;5104079;28;20054;-79
2023/12/14 01:59:25;;;;;;;9.38;6.05;;;4.70;99.90;;;;;;5086943;27;20040;-79
2023/12/14 02:01:56;;;;;;;11.35;5.88;;;4.70;99.90;;;;;;5111521;27;20074;-79
2023/12/14 02:04:23;;;;;;;11.68;6.15;;;4.70;99.90;;;;;;5122451;27;20035;-79
2023/12/14 02:06:49;;;;;;;12.48;6.53;;;4.70;99.90;;;;;;5143531;27;20529;-79
2023/12/14 02:09:15;;;;;;;10.90;6.30;;;4.70;99.90;;;;;;5096696;28;20083;-79
2023/12/14 02:11:41;;;;;;;12.07;6.43;;;4.70;99.90;;;;;;5143338;27;20130;-79
2023/12/14 02:14:09;;;;;;;9.77;6.50;;;4.70;99.90;;;;;;5134617;27;20505;-79
2023/12/14 02:16:38;;;;;;;10.88;6.25;;;4.70;99.90;;;;;;5097972;28;20056;-79
2023/12/14 02:19:04;;;;;;;11.70;6.22;;;4.70;99.90;;;;;;5089246;28;20046;-79
2023/12/14 02:21:29;;;;;;;7.80;5.03;;;4.80;99.90;;;;;;5130304;27;20047;-79
2023/12/14 02:23:55;;;;;;;8.90;5.57;;;4.70;99.90;;;;;;5109284;28;20035;-79
2023/12/14 02:26:21;;;;;;;9.63;5.75;;;4.70;99.90;;;;;;5091697;28;20120;-79
2023/12/14 02:28:47;;;;;;;14.02;7.28;;;4.70;99.90;;;;;;5133555;27;20044;-79
2023/12/14 02:31:12;;;;;;;11.48;6.30;;;4.70;99.90;;;;;;5107889;28;20562;-79
2023/12/14 02:33:38;;;;;;;11.65;6.10;;;4.70;99.90;;;;;;5091532;28;20035;-79
2023/12/14 02:36:04;;;;;;;10.30;6.53;;;4.70;99.90;;;;;;5134602;27;20513;-79
2023/12/14 02:38:30;;;;;;;15.02;6.28;;;4.80;99.90;;;;;;5107701;28;20036;-79
2023/12/14 02:40:56;;;;;;;10.32;6.10;;;4.80;99.90;;;;;;5090016;28;20046;-79
2023/12/14 02:43:23;;;;;;;9.63;5.57;;;4.80;99.90;;;;;;5089958;28;20032;-79
2023/12/14 02:45:49;;;;;;;11.55;6.35;;;4.70;99.90;;;;;;5104821;28;20410;-79
2023/12/14 02:48:15;;;;;;;10.77;6.22;;;4.70;99.90;;;;;;5131439;27;20046;-79
2023/12/14 02:50:41;;;;;;;9.55;5.85;;;4.70;99.90;;;;;;5091964;28;20048;-79
2023/12/14 02:53:07;;;;;;;10.73;6.10;;;4.70;99.90;;;;;;5095777;28;20081;-79
2023/12/14 02:55:32;;;;;;;13.43;6.50;;;4.70;99.90;;;;;;5104061;28;20166;-79
2023/12/14 02:57:58;;;;;;;7.97;5.30;;;4.80;99.90;;;;;;5143030;27;20039;-79
2023/12/14 03:00:24;;;;;;;9.60;5.43;;;4.70;99.90;;;;;;5121488;27;20051;-79
2023/12/14 03:02:49;;;;;;;9.30;5.47;;;4.70;99.90;;;;;;5123274;27;20139;-79
2023/12/14 03:05:15;;;;;;;11.50;5.63;;;4.70;99.90;;;;;;5120815;27;20593;-79
2023/12/14 03:07:41;;;;;;;10.32;5.50;;;4.70;99.90;;;;;;5108546;27;20420;-79
2023/12/14 03:10:07;;;;;;;8.30;5.38;;;4.70;99.90;;;;;;5121118;27;20116;-79
2023/12/14 03:12:33;;;;;;;9.52;5.80;;;4.70;99.90;;;;;;5121112;27;20043;-79
2023/12/14 03:14:59;;;;;;;10.88;6.07;;;4.70;99.90;;;;;;5103683;28;20055;-79
2023/12/14 03:17:24;;;;;;;9.07;5.65;;;4.70;99.90;;;;;;5072953;27;20506;-79
2023/12/14 03:19:50;;;;;;;10.32;5.65;;;4.70;99.90;;;;;;5123077;27;20039;-79
2023/12/14 03:22:16;;;;;;;9.15;5.68;;;4.70;99.90;;;;;;5087810;27;20039;-79
2023/12/14 03:24:42;;;;;;;9.57;5.90;;;4.70;99.90;;;;;;5103852;27;20047;-79
2023/12/14 03:27:07;;;;;;;9.55;5.65;;;4.70;99.90;;;;;;5121690;27;20047;-79
2023/12/14 03:29:33;;;;;;;8.88;5.30;;;4.80;99.90;;;;;;5122774;27;20043;-79
2023/12/14 03:31:59;;;;;;;10.23;5.70;;;4.80;99.90;;;;;;5120793;27;20047;-79
2023/12/14 03:34:25;;;;;;;10.77;5.55;;;4.70;99.90;;;;;;5124788;27;20571;-79
2023/12/14 03:36:51;;;;;;;11.88;5.95;;;4.80;99.90;;;;;;5102811;28;20055;-79
2023/12/14 03:39:16;;;;;;;10.25;5.50;;;4.70;99.90;;;;;;5121869;28;20116;-79
2023/12/14 03:41:43;;;;;;;8.73;5.55;;;4.80;99.90;;;;;;5120300;28;20731;-79
2023/12/14 03:44:09;;;;;;;13.25;5.95;;;4.70;99.90;;;;;;5117164;28;20066;-79
2023/12/14 03:46:34;;;;;;;11.70;6.05;;;4.70;99.90;;;;;;5119270;28;20081;-79
2023/12/14 03:49:00;;;;;;;13.07;6.05;;;4.80;99.90;;;;;;5101597;28;20120;-79
2023/12/14 03:51:26;;;;;;;9.43;5.82;;;4.80;99.90;;;;;;5105167;28;20039;-79
2023/12/14 03:53:52;;;;;;;12.63;6.05;;;4.80;99.90;;;;;;5119586;28;20058;-79
2023/12/14 03:56:18;;;;;;;13.88;6.82;;;4.70;99.90;;;;;;5121701;28;20086;-79
2023/12/14 03:58:43;;;;;;;13.05;6.68;;;4.80;99.90;;;;;;5121083;28;20042;-79
2023/12/14 04:01:19;;;;;;;10.23;5.93;;;4.80;99.90;;;;;;5114712;28;20549;-79
2023/12/14 04:03:45;;;;;;;11.10;5.93;;;4.70;99.90;;;;;;5117616;28;20051;-79
2023/12/14 04:06:12;;;;;;;14.10;6.35;;;4.70;99.90;;;;;;5117498;28;20493;-79
2023/12/14 04:08:38;;;;;;;15.30;7.38;;;4.80;99.90;;;;;;5117883;28;20035;-79
2023/12/14 04:11:04;;;;;;;;;;;4.70;99.90;;;;;;5120116;28;20145;-79
2023/12/14 04:13:30;;;;;;;16.33;6.88;;;4.70;99.90;;;;;;5104651;28;19928;-79
2023/12/14 04:15:57;;;;;;;12.27;7.03;;;4.70;99.90;;;;;;5114420;28;20039;-79
2023/12/14 04:18:23;;;;;;;11.95;7.25;;;4.70;99.90;;;;;;5114329;28;20131;-79
2023/12/14 04:20:48;;;;;;;11.68;7.22;;;4.70;99.90;;;;;;5110849;28;20047;-79
2023/12/14 04:23:14;;;;;;;10.80;7.68;;;4.70;99.90;;;;;;5111142;28;20398;-79
2023/12/14 04:25:40;;;;;;;13.48;7.80;;;4.70;99.90;;;;;;5094124;28;20055;-79
2023/12/14 04:28:05;;;;;;;12.02;6.57;;;4.70;99.90;;;;;;5094280;28;20483;-79
2023/12/14 04:30:31;;;;;;;13.13;7.28;;;4.70;99.90;;;;;;5110971;28;20043;-80
2023/12/14 04:32:57;;;;;;;12.00;6.88;;;4.60;99.90;;;;;;5077012;28;20513;-79
2023/12/14 04:35:22;;;;;;;12.00;7.88;;;4.70;99.90;;;;;;5072320;28;1103400;-79
2023/12/14 04:37:48;;;;;;;12.50;7.65;;;4.70;99.90;;;;;;5094776;28;20428;-79
2023/12/14 04:40:14;;;;;;;10.90;7.15;;;4.70;99.90;;;;;;5111760;28;20035;-80
2023/12/14 04:42:40;;;;;;;13.82;8.38;;;4.70;99.90;;;;;;5078477;28;20063;-80
2023/12/14 04:45:06;;;;;;;14.55;7.90;;;4.70;99.90;;;;;;5094808;28;20052;-79
2023/12/14 04:47:32;;;;;;;12.35;7.38;;;4.70;99.90;;;;;;5111892;28;20062;-79
2023/12/14 04:49:57;;;;;;;15.07;7.60;;;4.70;99.90;;;;;;5095049;28;20482;-79
2023/12/14 04:52:23;;;;;;;12.30;7.53;;;4.70;99.90;;;;;;5094434;28;20495;-79
2023/12/14 04:54:49;;;;;;;13.00;7.43;;;4.70;99.90;;;;;;5111560;28;20547;-79
2023/12/14 04:57:15;;;;;;;14.32;7.28;;;4.60;99.90;;;;;;5111591;28;20067;-79
2023/12/14 04:59:44;;;;;;;12.25;7.50;;;4.70;99.90;;;;;;5116719;27;20111;-79
2023/12/14 05:02:09;;;;;;;13.52;8.13;;;4.60;99.90;;;;;;5102978;27;20055;-79
2023/12/14 05:04:35;;;;;;;13.20;7.97;;;4.60;99.90;;;;;;5105086;28;20428;-78
2023/12/14 05:07:01;;;;;;;11.95;7.05;;;4.60;99.90;;;;;;5105973;28;20123;-78
2023/12/14 05:09:27;;;;;;;10.95;6.80;;;4.70;99.90;;;;;;5089117;28;20050;-78
2023/12/14 05:11:53;;;;;;;11.95;6.05;;;4.70;99.90;;;;;;5109370;28;20440;-78
2023/12/14 05:14:19;;;;;;;11.98;7.22;;;4.70;99.90;;;;;;5084593;28;20109;-78
2023/12/14 05:16:45;;;;;;;12.93;7.03;;;4.70;99.90;;;;;;5090076;28;20575;-78
2023/12/14 05:19:12;;;;;;;10.20;6.97;;;4.60;99.90;;;;;;5090811;27;21226;-78
2023/12/14 05:21:38;;;;;;;11.60;7.50;;;4.60;99.90;;;;;;5106998;27;20495;-78
2023/12/14 05:24:04;;;;;;;11.98;7.88;;;4.60;99.90;;;;;;5111115;28;20075;-78
2023/12/14 05:26:30;;;;;;;13.95;7.55;;;4.70;99.90;;;;;;5110705;28;20050;-79
2023/12/14 05:28:55;;;;;;;12.68;7.32;;;4.60;99.90;;;;;;5119212;27;20095;-78
2023/12/14 05:31:21;;;;;;;10.32;6.95;;;4.70;99.90;;;;;;5096964;28;20034;-78
2023/12/14 05:33:47;;;;;;;12.50;6.75;;;4.70;99.90;;;;;;5101227;28;20040;-78
2023/12/14 05:36:13;;;;;;;9.80;6.38;;;4.60;99.90;;;;;;5090083;28;20105;-78
2023/12/14 05:38:39;;;;;;;12.30;6.78;;;4.70;99.90;;;;;;5104658;28;20078;-78
2023/12/14 05:41:05;;;;;;;13.30;8.25;;;4.60;99.90;;;;;;5090622;28;20043;-78
2023/12/14 05:43:31;;;;;;;12.80;7.82;;;4.70;99.90;;;;;;5098222;28;20043;-78
2023/12/14 05:45:57;;;;;;;13.27;7.88;;;4.60;99.90;;;;;;5110678;28;20112;-78
2023/12/14 05:48:22;;;;;;;12.82;8.02;;;4.60;99.90;;;;;;5082398;28;20040;-78
2023/12/14 05:50:48;;;;;;;12.07;6.70;;;4.60;99.90;;;;;;5085363;28;20108;-78
2023/12/14 05:53:14;;;;;;;10.05;6.43;;;4.70;99.90;;;;;;5093063;28;20055;-78
2023/12/14 05:55:40;;;;;;;13.30;7.40;;;4.60;99.90;;;;;;5101389;28;20035;-79
2023/12/14 05:58:07;;;;;;;11.65;6.68;;;4.60;99.90;;;;;;5090228;28;20093;-80
2023/12/14 06:00:35;;;;;;;13.00;7.43;;;4.60;99.90;;;;;;5103869;28;20083;-79
2023/12/14 06:03:01;;;;;;;11.90;7.07;;;4.70;99.90;;;;;;5107412;28;20043;-78
2023/12/14 06:05:26;;;;;;;11.27;7.32;;;4.60;99.90;;;;;;5136877;27;20536;-79
2023/12/14 06:07:52;;;;;;;10.80;6.65;;;4.60;99.90;;;;;;5110413;28;20418;-79
2023/12/14 06:10:18;;;;;;;12.10;7.60;;;4.70;99.90;;;;;;5110514;28;20039;-79
2023/12/14 06:12:44;;;;;;;11.40;6.85;;;4.60;99.90;;;;;;5109474;28;20370;-79
2023/12/14 06:15:13;;;;;;;10.43;6.65;;;4.70;99.90;;;;;;5109778;28;20070;-79
2023/12/14 06:17:40;;;;;;;11.52;6.95;;;4.70;99.90;;;;;;5098379;28;20088;-79
2023/12/14 06:20:08;;;;;;;11.70;7.40;;;4.70;99.90;;;;;;5099320;28;20043;-79
2023/12/14 06:22:37;;;;;;;12.63;6.68;;;4.70;99.90;;;;;;5109206;28;20130;-79
2023/12/14 06:25:03;;;;;;;10.77;6.75;;;4.70;99.90;;;;;;5109774;28;20063;-79
2023/12/14 06:27:29;;;;;;;10.18;6.50;;;4.70;99.90;;;;;;5092874;28;20035;-79
2023/12/14 06:29:55;;;;;;;10.32;6.05;;;4.70;99.90;;;;;;5092912;28;20046;-79
2023/12/14 06:32:21;;;;;;;12.10;7.22;;;4.70;99.90;;;;;;5109947;28;20483;-79
2023/12/14 06:34:47;;;;;;;10.82;6.75;;;4.70;99.90;;;;;;5092637;28;20160;-79
2023/12/14 06:37:13;;;;;;;11.30;6.82;;;4.60;99.90;;;;;;5123151;28;20052;-79
2023/12/14 06:39:40;;;;;;;12.95;6.93;;;4.70;99.90;;;;;;5092961;28;20491;-79
2023/12/14 06:42:06;;;;;;;12.52;6.95;;;4.70;99.90;;;;;;5110015;28;20036;-79
2023/12/14 06:44:32;;;;;;;10.65;6.70;;;4.70;99.90;;;;;;5109711;28;20826;-80
2023/12/14 06:46:58;;;;;;;12.77;7.47;;;4.70;99.90;;;;;;5092589;28;20550;-79
2023/12/14 06:49:25;;;;;;;12.48;7.57;;;4.70;99.90;;;;;;5109308;28;20103;-79
2023/12/14 06:51:50;;;;;;;12.73;7.00;;;4.70;99.90;;;;;;5109261;28;20035;-79
2023/12/14 06:54:16;;;;;;;11.57;6.70;;;4.70;99.90;;;;;;5092782;28;20375;-79
2023/12/14 06:56:42;;;;;;;12.20;7.30;;;4.70;99.90;;;;;;5109115;28;20505;-79
2023/12/14 06:59:08;;;;;;;10.52;6.45;;;4.70;99.90;;;;;;5092154;28;20043;-80
2023/12/14 07:01:34;;;;;;;12.55;6.78;;;4.70;99.90;;;;;;5109728;28;20395;-80
2023/12/14 07:03:59;;;;;;;13.50;7.13;;;4.70;99.90;;;;;;5092872;28;20051;-80
2023/12/14 07:06:25;;;;;;;11.57;7.00;;;4.70;99.90;;;;;;5110108;28;20043;-79
2023/12/14 07:08:51;;;;;;;11.98;6.32;;;4.70;99.90;;;;;;5095062;28;20498;-79
2023/12/14 07:11:17;;;;;;;7.97;5.68;;;4.70;99.90;;;;;;5110120;28;20038;-79
2023/12/14 07:13:43;;;;;;;10.27;5.85;;;4.70;99.90;;;;;;5110217;28;20031;-79
2023/12/14 07:16:10;;;;;;;12.18;6.82;;;4.70;99.90;;;;;;5112351;28;20085;-80
2023/12/14 07:18:40;;;;;;;11.88;6.50;;;4.70;99.90;;;;;;5078869;28;20039;-79
2023/12/14 07:21:07;;;;;;;13.77;8.20;;;4.70;99.90;;;;;;5096696;28;20079;-80
2023/12/14 07:23:33;;;;;;;14.75;7.97;;;4.70;99.90;;;;;;5123557;27;20474;-80
2023/12/14 07:25:59;;;;;;;11.88;7.15;;;4.70;99.90;;;;;;5102052;27;20115;-80
2023/12/14 07:28:25;;;;;;;9.13;5.50;;;4.70;99.90;;;;;;5099538;27;20130;-82
2023/12/14 07:30:50;;;;;;;13.50;6.53;;;4.70;99.90;;;;;;5076878;28;20067;-81
2023/12/14 07:33:16;;;;;;;14.55;8.13;;;4.70;99.90;;;;;;5094148;28;20040;-81
2023/12/14 07:35:42;;;;;;;14.30;8.68;;;4.70;99.90;;;;;;5094915;28;20052;-81
2023/12/14 07:38:10;;;;;;;15.98;8.07;;;4.70;99.90;;;;;;5092391;28;20051;-81
2023/12/14 07:40:35;;;;;;;12.80;7.90;;;4.70;99.90;;;;;;5096600;28;20047;-81
2023/12/14 07:43:01;;;;;;;11.23;6.72;;;4.70;99.90;;;;;;5095664;28;20069;-81
2023/12/14 07:45:27;;;;;;;11.05;7.03;;;4.70;99.90;;;;;;5096128;28;20040;-81
2023/12/14 07:47:53;;;;;;;11.60;6.60;;;4.70;99.90;;;;;;5113024;28;20076;-81
2023/12/14 07:50:19;;;;;;;;;;;4.70;99.90;;;;;;5096650;28;20086;-81
2023/12/14 07:52:45;;;;;;;10.23;6.10;;;4.70;99.90;;;;;;5113035;28;19965;-81
2023/12/14 07:55:13;;;;;;;12.88;7.20;;;4.70;99.90;;;;;;5095654;28;20039;-81
2023/12/14 07:57:39;;;;;;;15.25;8.35;;;4.70;99.90;;;;;;5112906;28;20048;-81
2023/12/14 08:00:05;;;;;;;11.73;6.95;;;4.70;99.90;;;;;;5095579;28;20043;-81
2023/12/14 08:02:31;;;;;;;12.82;6.90;;;4.70;99.90;;;;;;5112593;28;20509;-81
2023/12/14 08:04:57;;;;;;;11.98;6.60;;;4.70;99.90;;;;;;5078856;28;20039;-81
2023/12/14 08:07:23;;;;;;;9.90;6.57;;;4.70;99.90;;;;;;5095702;28;20043;-81
2023/12/14 08:09:48;;;;;;;12.48;7.43;;;4.70;99.90;;;;;;5078780;28;20062;-81
2023/12/14 08:12:14;;;;;;;10.50;5.97;;;4.70;99.90;;;;;;5112322;28;20510;-81
2023/12/14 08:14:43;;;;;;;8.68;5.78;;;4.70;99.90;;;;;;5112428;28;20100;-81
2023/12/14 08:17:10;;;;;;;11.18;7.35;;;4.70;99.90;;;;;;5095182;28;20040;-82
2023/12/14 08:19:35;;;;;;;13.98;9.20;;;4.70;99.90;;;;;;5112259;28;20055;-81
2023/12/14 08:22:01;;;;;;;14.80;8.93;;;4.70;99.90;;;;;;5095206;28;20047;-81
2023/12/14 08:24:27;;;;;;;15.32;8.70;;;4.80;99.90;;;;;;5095226;28;20127;-81
2023/12/14 08:26:52;;;;;;;9.30;6.70;;;4.70;99.90;;;;;;5095371;28;20038;-81
2023/12/14 08:29:18;;;;;;;11.45;7.15;;;4.80;99.90;;;;;;5112085;28;20408;-81
2023/12/14 08:31:44;;;;;;;9.07;6.47;;;4.80;99.90;;;;;;5094994;28;20509;-81
2023/12/14 08:34:10;;;;;;;10.60;6.13;;;4.80;99.90;;;;;;5111330;28;20044;-81
2023/12/14 08:36:36;;;;;;;;;;;4.80;99.90;;;;;;5095005;28;20068;-81
2023/12/14 08:39:02;;;;;;;10.25;5.80;;;4.80;99.90;;;;;;5077851;28;19999;-81
2023/12/14 08:41:27;;;;;;;8.13;5.78;;;4.90;99.90;;;;;;5111648;28;20118;-81
2023/12/14 08:43:55;;;;;;;9.02;5.00;;;4.80;99.90;;;;;;5077872;28;20047;-81
2023/12/14 08:46:21;;;;;;;10.48;6.03;;;4.90;99.90;;;;;;5111788;28;20036;-81
2023/12/14 08:48:47;;;;;;;9.23;6.78;;;4.90;99.90;;;;;;5111883;28;20051;-82
2023/12/14 08:51:13;;;;;;;12.48;7.60;;;4.90;99.90;;;;;;5095103;28;20390;-81
2023/12/14 08:53:38;;;;;;;9.40;6.10;;;4.90;99.90;;;;;;5111494;28;20047;-81
2023/12/14 08:56:05;;;;;;;8.38;5.85;;;4.90;99.90;;;;;;5111750;28;20084;-82
2023/12/14 08:58:30;;;;;;;8.63;5.85;;;5.00;99.90;;;;;;5094648;28;20056;-81
2023/12/14 09:00:56;;;;;;;9.27;5.88;;;5.00;99.90;;;;;;5094359;28;20137;-82
2023/12/14 09:03:22;;;;;;;11.43;6.75;;;5.00;99.90;;;;;;5077815;28;20363;-81
2023/12/14 09:05:48;;;;;;;17.88;9.40;;;5.10;99.90;;;;;;5094448;28;20031;-81
2023/12/14 09:08:13;;;;;;;37.90;24.83;;;5.10;99.90;;;;;;5111433;28;20402;-81
2023/12/14 09:10:39;;;;;;;24.67;14.98;;;5.10;99.90;;;;;;5077414;28;20044;-82
2023/12/14 09:13:05;;;;;;;18.80;11.82;;;5.10;99.90;;;;;;5094496;28;20112;-81
2023/12/14 09:15:31;;;;;;;24.58;17.08;;;5.10;99.90;;;;;;5111157;28;20043;-82
2023/12/14 09:17:57;;;;;;;;;;;5.10;99.90;;;;;;5094779;28;20047;-81
2023/12/14 09:20:23;;;;;;;17.27;11.35;;;5.10;99.90;;;;;;5093963;28;19930;-81
2023/12/14 09:22:49;;;;;;;17.10;11.27;;;5.20;99.90;;;;;;5093855;28;20051;-81
2023/12/14 09:25:15;;;;;;;19.98;12.55;;;5.20;99.90;;;;;;5111369;28;20040;-81
2023/12/14 09:27:41;;;;;;;;;;;5.20;99.90;;;;;;5111274;28;20495;-81
2023/12/14 09:30:07;;;;;;;19.50;12.52;;;5.20;99.90;;;;;;5111041;28;19919;-81
2023/12/14 09:32:33;;;;;;;16.83;11.25;;;5.20;99.90;;;;;;5111073;28;20092;-81
2023/12/14 09:34:59;;;;;;;12.63;9.20;;;5.20;99.90;;;;;;5110968;28;20047;-82
2023/12/14 09:37:25;;;;;;;18.42;13.38;;;5.20;99.90;;;;;;5093572;28;20062;-81
2023/12/14 09:39:51;;;;;;;15.75;11.80;;;5.20;99.90;;;;;;5110561;28;20043;-81
2023/12/14 09:42:22;;;;;;;15.88;11.30;;;5.30;99.90;;;;;;5110506;28;20039;-82
2023/12/14 09:44:48;;;;;;;13.95;9.82;;;5.30;99.90;;;;;;5110843;28;20061;-81
2023/12/14 09:47:14;;;;;;;13.60;9.23;;;5.30;99.90;;;;;;5110286;28;20039;-81
2023/12/14 09:49:42;;;;;;;12.50;7.30;;;5.30;99.90;;;;;;5110459;28;20054;-82
2023/12/14 09:52:09;;;;;;;10.45;6.63;;;5.30;99.90;;;;;;5110630;28;20051;-81
2023/12/14 09:54:35;;;;;;;10.73;6.22;;;5.40;99.90;;;;;;5110728;28;20055;-81
2023/12/14 09:57:00;;;;;;;12.27;7.03;;;5.40;99.90;;;;;;5110381;28;20411;-81
2023/12/14 09:59:26;;;;;;;12.88;7.53;;;5.30;99.90;;;;;;5093470;28;20051;-81
2023/12/14 10:01:52;;;;;;;14.45;7.80;;;5.40;99.90;;;;;;5093818;28;20052;-82
2023/12/14 10:04:23;;;;;;;13.57;8.57;;;5.40;99.90;;;;;;5110670;28;20043;-81
2023/12/14 10:06:49;;;;;;;15.38;8.68;;;5.40;99.90;;;;;;5110227;28;20042;-81
2023/12/14 10:09:18;;;;;;;13.10;7.85;;;5.40;99.90;;;;;;5110685;28;20039;-81
2023/12/14 10:11:44;;;;;;;10.88;7.38;;;5.50;99.90;;;;;;5109988;28;20065;-81
2023/12/14 10:14:25;;;;;;;12.18;7.70;;;5.50;99.90;;;;;;5093366;28;20036;-81
2023/12/14 10:16:52;;;;;;;11.02;7.15;;;5.40;99.90;;;;;;5110416;28;20115;-81
2023/12/14 10:19:18;;;;;;;;;;;5.50;99.90;;;;;;5093566;28;20425;-81
2023/12/14 10:21:46;;;;;;;11.55;7.28;;;5.50;99.90;;;;;;5110209;28;19920;-80
2023/12/14 10:24:12;;;;;;;15.73;8.98;;;5.50;99.90;;;;;;5110497;28;20514;-81
2023/12/14 10:26:38;;;;;;;14.40;10.18;;;5.60;99.90;;;;;;5110245;28;20050;-80
2023/12/14 10:29:06;;;;;;;19.40;9.88;;;5.50;99.90;;;;;;5092831;28;20486;-80
2023/12/14 10:31:37;;;;;;;13.73;8.23;;;5.60;99.90;;;;;;5110252;28;20043;-80
2023/12/14 10:34:06;;;;;;;14.32;8.68;;;5.60;99.90;;;;;;5109959;28;20108;-80
2023/12/14 10:36:32;;;;;;;14.02;8.90;;;5.60;99.90;;;;;;5109749;28;20087;-80
2023/12/14 10:39:00;;;;;;;13.55;8.63;;;5.60;99.90;;;;;;5109853;28;20107;-80
2023/12/14 10:41:27;;;;;;;15.50;8.95;;;5.60;99.90;;;;;;5109643;28;20135;-80
2023/12/14 10:43:57;;;;;;;13.82;7.65;;;5.70;99.90;;;;;;5109867;28;20450;-80
2023/12/14 10:46:27;;;;;;;14.55;8.40;;;5.80;99.90;;;;;;5110017;28;20138;-80
2023/12/14 10:48:53;;;;;;;20.40;10.90;;;5.80;99.90;;;;;;5109703;28;20071;-80
2023/12/14 10:51:21;;;;;;;15.27;9.32;;;5.90;99.90;;;;;;5110035;28;20053;-80
2023/12/14 10:53:49;;;;;;;20.08;10.93;;;5.90;99.90;;;;;;5109727;28;20032;-80
2023/12/14 10:56:16;;;;;;;17.70;10.07;;;5.90;99.90;;;;;;5109875;28;20127;-80
2023/12/14 10:58:53;;;;;;;13.63;8.73;;;5.80;99.90;;;;;;5112185;28;20126;-80
2023/12/14 11:01:21;;;;;;;14.32;8.60;;;5.90;99.90;;;;;;5096520;28;20062;-80
2023/12/14 11:03:48;;;;;;;14.70;8.48;;;5.90;99.90;;;;;;5113500;28;20524;-79
2023/12/14 11:06:30;;;;;;;16.63;9.07;;;6.00;99.90;;;;;;5113566;28;20055;-80
2023/12/14 11:09:05;;;;;;;14.20;9.27;;;6.00;99.90;;;;;;5113372;28;20040;-80
2023/12/14 11:11:56;;;;;;;15.63;8.90;;;6.00;99.90;;;;;;5113406;28;20044;-80
2023/12/14 11:14:22;;;;;;;13.80;8.95;;;6.00;99.90;;;;;;5113853;28;20044;-80
2023/12/14 11:16:48;;;;;;;16.30;8.82;;;6.00;99.90;;;;;;5096417;28;20043;-80
2023/12/14 11:19:25;;;;;;;14.15;9.05;;;6.00;99.90;;;;;;5113540;28;20042;-80
2023/12/14 11:21:57;;;;;;;12.80;7.82;;;6.00;99.90;;;;;;5096210;28;20036;-80
2023/12/14 11:24:23;;;;;;;14.10;8.38;;;6.10;99.90;;;;;;5113754;28;20044;-80
2023/12/14 11:26:54;;;;;;;12.95;8.68;;;6.10;99.90;;;;;;5113131;28;20083;-80
2023/12/14 11:29:20;;;;;;;12.23;7.88;;;6.10;99.90;;;;;;5113172;28;20040;-80
2023/12/14 11:31:46;;;;;;;;;;;6.10;99.90;;;;;;5096442;28;20042;-80
2023/12/14 11:34:12;;;;;;;11.27;7.20;;;6.10;99.90;;;;;;5113318;28;19919;-80
2023/12/14 11:36:41;;;;;;;15.48;8.35;;;6.20;99.90;;;;;;5112747;28;20056;-80
2023/12/14 11:39:11;;;;;;;12.40;7.88;;;6.20;99.90;;;;;;5112896;28;20494;-80
2023/12/14 11:41:38;;;;;;;14.68;9.07;;;6.20;99.90;;;;;;5096338;28;20450;-80
2023/12/14 11:44:04;;;;;;;14.40;8.75;;;6.20;99.90;;;;;;5096174;28;20048;-80
2023/12/14 11:46:30;;;;;;;13.90;8.93;;;6.20;99.90;;;;;;5095825;28;20124;-80
2023/12/14 11:49:03;;;;;;;11.85;8.18;;;6.20;99.90;;;;;;5112936;28;20118;-80
2023/12/14 11:51:30;;;;;;;16.08;8.82;;;6.20;99.90;;;;;;5095994;28;20039;-80
2023/12/14 11:54:00;;;;;;;14.73;8.38;;;6.20;99.90;;;;;;5112863;28;20495;-80
2023/12/14 11:56:25;;;;;;;14.77;8.30;;;6.20;99.90;;;;;;5113033;28;20079;-80
2023/12/14 11:58:53;;;;;;;11.95;7.85;;;6.20;99.90;;;;;;5112587;28;20390;-80
2023/12/14 12:01:21;;;;;;;13.68;8.55;;;6.30;99.90;;;;;;5112313;28;20495;-80
2023/12/14 12:03:47;;;;;;;13.05;8.35;;;6.20;99.90;;;;;;5112614;28;20069;-80
2023/12/14 12:06:30;;;;;;;14.30;8.60;;;6.30;99.90;;;;;;5112416;28;20049;-80
2023/12/14 12:08:56;;;;;;;12.70;7.88;;;6.20;99.90;;;;;;5112176;28;20445;-80
2023/12/14 12:11:24;;;;;;;11.55;7.50;;;6.20;99.90;;;;;;5112377;28;20035;-80
2023/12/14 12:13:55;;;;;;;13.35;8.52;;;6.30;99.90;;;;;;5112404;28;20131;-80
2023/12/14 12:16:21;;;;;;;13.68;8.43;;;6.20;99.90;;;;;;5112079;28;20104;-80
2023/12/14 12:18:47;;;;;;;11.30;7.47;;;6.20;99.90;;;;;;5112579;28;20391;-80
2023/12/14 12:21:13;;;;;;;12.98;8.05;;;6.30;99.90;;;;;;5095188;28;20054;-80
2023/12/14 12:23:41;;;;;;;13.38;8.45;;;6.40;99.90;;;;;;5078411;28;20483;-80
2023/12/14 12:26:07;;;;;;;15.88;9.20;;;6.40;99.90;;;;;;5112153;28;20081;-80
2023/12/14 12:28:33;;;;;;;13.73;8.80;;;6.40;99.90;;;;;;5095307;28;20071;-80
2023/12/14 12:30:59;;;;;;;11.80;7.80;;;6.40;99.90;;;;;;5111871;28;20048;-80
2023/12/14 12:33:25;;;;;;;13.75;8.68;;;6.40;99.90;;;;;;5112012;28;20048;-80
2023/12/14 12:35:52;;;;;;;12.02;8.15;;;6.30;99.90;;;;;;5095394;27;20056;-76
2023/12/14 12:38:18;;;;;;;14.05;8.05;;;6.30;99.90;;;;;;5125514;27;20050;-79
2023/12/14 12:40:44;;;;;;;12.00;8.23;;;6.30;99.90;;;;;;5124994;27;20040;-80
2023/12/14 12:43:10;;;;;;;24.48;13.23;;;6.30;99.90;;;;;;5111904;28;20487;-79
2023/12/14 12:45:37;;;;;;;15.27;9.63;;;6.20;99.90;;;;;;5111874;28;20043;-79